createdAt,value
2022-10-19T00:00:02.152Z,57.88
2022-10-19T00:01:02.159Z,57.88
2022-10-19T00:02:02.201Z,57.88
2022-10-19T00:03:02.176Z,57.88
2022-10-19T00:04:03.481Z,57.88
2022-10-19T00:05:02.150Z,57.88
2022-10-19T00:06:02.149Z,57.88
2022-10-19T00:07:02.150Z,57.88
2022-10-19T00:08:02.152Z,57.88
2022-10-19T00:09:02.155Z,57.88
2022-10-19T00:10:02.150Z,57.88
2022-10-19T00:11:02.157Z,57.88
2022-10-19T00:12:02.163Z,57.88
2022-10-19T00:13:02.184Z,57.88
2022-10-19T00:14:02.153Z,57.88
2022-10-19T00:15:02.154Z,57.88
2022-10-19T00:16:02.145Z,57.88
2022-10-19T00:17:02.158Z,57.88
2022-10-19T00:18:02.158Z,57.88
2022-10-19T00:19:02.183Z,57.88
2022-10-19T00:20:02.157Z,57.88
2022-10-19T00:21:02.149Z,57.88
2022-10-19T00:22:02.155Z,57.88
2022-10-19T00:23:02.145Z,57.88
2022-10-19T00:24:02.153Z,57.88
2022-10-19T00:25:02.153Z,57.88
2022-10-19T00:26:02.158Z,57.88
2022-10-19T00:27:02.156Z,57.88
2022-10-19T00:28:02.167Z,57.88
2022-10-19T00:29:02.207Z,57.88
2022-10-19T00:30:02.162Z,57.88
2022-10-19T00:31:02.160Z,57.88
2022-10-19T00:32:02.152Z,57.88
2022-10-19T00:33:02.154Z,57.88
2022-10-19T00:34:02.156Z,57.88
2022-10-19T00:35:02.180Z,57.88
2022-10-19T00:36:02.163Z,57.88
2022-10-19T00:37:02.158Z,57.88
2022-10-19T00:38:02.159Z,57.88
2022-10-19T00:39:02.158Z,57.88
2022-10-19T00:40:02.158Z,57.88
2022-10-19T00:41:02.166Z,57.88
2022-10-19T00:42:02.154Z,57.88
2022-10-19T00:43:02.166Z,57.88
2022-10-19T00:44:02.159Z,57.88
2022-10-19T00:45:02.158Z,57.88
2022-10-19T00:46:02.169Z,57.88
2022-10-19T00:47:02.148Z,57.88
2022-10-19T00:48:02.162Z,57.88
2022-10-19T00:49:02.641Z,57.88
2022-10-19T00:50:02.171Z,57.88
2022-10-19T00:51:02.184Z,57.88
2022-10-19T00:52:02.164Z,57.88
2022-10-19T00:53:02.151Z,57.88
2022-10-19T00:54:02.174Z,57.88
2022-10-19T00:55:02.157Z,57.88
2022-10-19T00:56:02.166Z,57.88
2022-10-19T00:57:02.149Z,57.88
2022-10-19T00:58:02.171Z,57.88
2022-10-19T00:59:02.167Z,57.88
2022-10-19T01:00:02.164Z,57.88
2022-10-19T01:01:02.173Z,57.88
2022-10-19T01:02:02.157Z,57.88
2022-10-19T01:03:02.157Z,57.88
2022-10-19T01:04:02.164Z,57.88
2022-10-19T01:05:02.157Z,57.88
2022-10-19T01:06:02.158Z,57.88
2022-10-19T01:07:02.182Z,57.88
2022-10-19T01:08:02.158Z,57.88
2022-10-19T01:09:02.158Z,57.88
2022-10-19T01:10:02.183Z,57.88
2022-10-19T01:11:02.158Z,57.88
2022-10-19T01:12:02.160Z,57.88
2022-10-19T01:13:02.163Z,57.88
2022-10-19T01:14:02.168Z,57.88
2022-10-19T01:15:02.165Z,57.88
2022-10-19T01:16:02.182Z,57.88
2022-10-19T01:17:02.159Z,57.88
2022-10-19T01:18:02.163Z,57.88
2022-10-19T01:19:02.165Z,57.88
2022-10-19T01:20:02.166Z,57.88
2022-10-19T01:21:02.172Z,57.88
2022-10-19T01:22:02.158Z,57.88
2022-10-19T01:23:02.197Z,57.88
2022-10-19T01:24:02.166Z,57.88
2022-10-19T01:25:02.166Z,57.88
2022-10-19T01:26:02.161Z,57.88
2022-10-19T01:27:02.164Z,57.88
2022-10-19T01:28:02.163Z,57.88
2022-10-19T01:29:02.239Z,57.88
2022-10-19T01:30:02.173Z,57.88
2022-10-19T01:31:02.167Z,57.88
2022-10-19T01:32:02.158Z,57.88
2022-10-19T01:33:02.166Z,57.88
2022-10-19T01:34:02.182Z,57.88
2022-10-19T01:35:02.155Z,57.88
2022-10-19T01:36:02.161Z,57.88
2022-10-19T01:37:02.167Z,57.88
2022-10-19T01:38:02.163Z,57.88
2022-10-19T01:39:02.187Z,57.88
2022-10-19T01:40:02.162Z,57.88
2022-10-19T01:41:02.171Z,57.88
2022-10-19T01:42:02.162Z,57.88
2022-10-19T01:43:02.160Z,57.88
2022-10-19T01:44:02.173Z,57.88
2022-10-19T01:45:02.191Z,57.88
2022-10-19T01:46:02.166Z,57.88
2022-10-19T01:47:02.163Z,57.88
2022-10-19T01:48:02.167Z,57.88
2022-10-19T01:49:02.173Z,57.88
2022-10-19T01:50:02.166Z,57.88
2022-10-19T01:51:02.163Z,57.88
2022-10-19T01:52:02.177Z,57.88
2022-10-19T01:53:02.172Z,57.88
2022-10-19T01:54:02.164Z,57.88
2022-10-19T01:55:02.193Z,57.88
2022-10-19T01:56:02.166Z,57.88
2022-10-19T01:57:02.160Z,57.88
2022-10-19T01:58:02.175Z,57.88
2022-10-19T01:59:02.177Z,57.88
2022-10-19T02:00:02.187Z,57.88
2022-10-19T02:01:02.254Z,57.88
2022-10-19T02:02:02.178Z,57.88
2022-10-19T02:03:02.171Z,57.88
2022-10-19T02:04:02.165Z,57.88
2022-10-19T02:05:02.172Z,57.88
2022-10-19T02:06:02.174Z,57.88
2022-10-19T02:07:02.159Z,57.88
2022-10-19T02:08:02.172Z,57.88
2022-10-19T02:09:02.174Z,57.88
2022-10-19T02:10:02.264Z,57.88
2022-10-19T02:11:02.188Z,57.88
2022-10-19T02:12:02.176Z,57.88
2022-10-19T02:13:02.171Z,57.88
2022-10-19T02:14:02.167Z,57.88
2022-10-19T02:15:02.175Z,57.88
2022-10-19T02:16:02.176Z,57.88
2022-10-19T02:17:02.172Z,57.88
2022-10-19T02:18:02.172Z,57.88
2022-10-19T02:19:02.168Z,57.88
2022-10-19T02:20:02.173Z,57.88
2022-10-19T02:21:02.162Z,57.88
2022-10-19T02:22:02.177Z,57.88
2022-10-19T02:23:02.182Z,57.88
2022-10-19T02:24:02.180Z,57.88
2022-10-19T02:25:02.163Z,57.88
2022-10-19T02:26:02.171Z,57.88
2022-10-19T02:27:02.204Z,57.88
2022-10-19T02:28:02.168Z,57.88
2022-10-19T02:29:02.173Z,57.88
2022-10-19T02:30:02.185Z,57.88
2022-10-19T02:31:02.175Z,57.88
2022-10-19T02:32:02.180Z,57.88
2022-10-19T02:33:02.177Z,57.88
2022-10-19T02:34:02.184Z,57.88
2022-10-19T02:35:02.175Z,57.88
2022-10-19T02:36:02.172Z,57.88
2022-10-19T02:37:02.172Z,57.88
2022-10-19T02:38:02.178Z,57.88
2022-10-19T02:39:02.180Z,57.88
2022-10-19T02:40:02.187Z,57.88
2022-10-19T02:41:02.176Z,57.88
2022-10-19T02:42:02.166Z,57.88
2022-10-19T02:43:02.198Z,57.88
2022-10-19T02:44:02.182Z,57.88
2022-10-19T02:45:02.175Z,57.88
2022-10-19T02:46:02.173Z,57.88
2022-10-19T02:47:02.167Z,57.88
2022-10-19T02:48:02.178Z,57.88
2022-10-19T02:49:02.166Z,57.88
2022-10-19T02:50:02.182Z,57.88
2022-10-19T02:51:02.175Z,57.88
2022-10-19T02:52:02.182Z,57.88
2022-10-19T02:53:02.178Z,57.88
2022-10-19T02:54:04.075Z,57.88
2022-10-19T02:55:02.172Z,57.88
2022-10-19T02:56:02.184Z,57.88
2022-10-19T02:57:02.178Z,57.88
2022-10-19T02:58:02.178Z,57.88
2022-10-19T02:59:02.215Z,57.88
2022-10-19T03:00:02.171Z,57.88
2022-10-19T03:01:02.233Z,57.88
2022-10-19T03:02:02.172Z,57.88
2022-10-19T03:03:02.184Z,57.88
2022-10-19T03:04:02.185Z,57.88
2022-10-19T03:05:02.195Z,57.88
2022-10-19T03:06:02.193Z,57.88
2022-10-19T03:07:02.177Z,57.88
2022-10-19T03:08:02.187Z,57.88
2022-10-19T03:09:02.190Z,57.88
2022-10-19T03:10:02.179Z,57.88
2022-10-19T03:11:02.185Z,57.88
2022-10-19T03:12:02.187Z,57.88
2022-10-19T03:13:02.179Z,57.88
2022-10-19T03:14:02.188Z,57.88
2022-10-19T03:15:02.213Z,57.88
2022-10-19T03:16:02.184Z,57.88
2022-10-19T03:17:02.191Z,57.88
2022-10-19T03:18:02.199Z,57.88
2022-10-19T03:19:02.186Z,57.88
2022-10-19T03:20:02.200Z,57.88
2022-10-19T03:21:02.178Z,57.88
2022-10-19T03:22:02.180Z,57.88
2022-10-19T03:23:02.191Z,57.88
2022-10-19T03:24:02.196Z,57.88
2022-10-19T03:25:02.205Z,57.88
2022-10-19T03:26:02.187Z,57.88
2022-10-19T03:27:02.188Z,57.88
2022-10-19T03:28:02.194Z,57.88
2022-10-19T03:29:02.252Z,57.88
2022-10-19T03:30:02.185Z,57.88
2022-10-19T03:31:02.214Z,57.88
2022-10-19T03:32:02.186Z,57.88
2022-10-19T03:33:02.195Z,57.88
2022-10-19T03:34:02.181Z,57.88
2022-10-19T03:35:02.191Z,57.88
2022-10-19T03:36:02.185Z,57.88
2022-10-19T03:37:02.178Z,57.88
2022-10-19T03:38:02.192Z,57.88
2022-10-19T03:39:02.200Z,57.88
2022-10-19T03:40:02.199Z,57.88
2022-10-19T03:41:02.186Z,57.88
2022-10-19T03:42:02.183Z,57.88
2022-10-19T03:43:02.190Z,57.88
2022-10-19T03:44:02.207Z,57.88
2022-10-19T03:45:02.186Z,57.88
2022-10-19T03:46:02.194Z,57.88
2022-10-19T03:47:02.216Z,57.88
2022-10-19T03:48:02.188Z,57.88
2022-10-19T03:49:02.197Z,57.88
2022-10-19T03:50:02.194Z,57.88
2022-10-19T03:51:02.188Z,57.88
2022-10-19T03:52:02.203Z,57.88
2022-10-19T03:54:02.188Z,57.88
2022-10-19T03:55:02.187Z,57.88
2022-10-19T03:56:02.191Z,57.88
2022-10-19T03:57:02.198Z,57.88
2022-10-19T03:58:02.192Z,57.88
2022-10-19T03:59:02.189Z,57.88
2022-10-19T04:00:02.202Z,57.88
2022-10-19T04:01:02.293Z,57.88
2022-10-19T04:02:02.203Z,57.88
2022-10-19T04:03:02.222Z,57.88
2022-10-19T04:04:02.198Z,57.88
2022-10-19T04:05:02.195Z,57.88
2022-10-19T04:06:02.194Z,57.88
2022-10-19T04:07:02.184Z,57.88
2022-10-19T04:08:02.191Z,57.88
2022-10-19T04:09:02.181Z,57.88
2022-10-19T04:10:02.195Z,57.88
2022-10-19T04:11:02.194Z,57.88
2022-10-19T04:12:02.204Z,57.88
2022-10-19T04:13:02.205Z,57.88
2022-10-19T04:14:02.256Z,57.88
2022-10-19T04:15:02.195Z,57.88
2022-10-19T04:16:02.199Z,57.88
2022-10-19T04:17:02.191Z,57.88
2022-10-19T04:18:02.197Z,57.88
2022-10-19T04:19:02.237Z,57.88
2022-10-19T04:20:02.235Z,57.88
2022-10-19T04:21:02.214Z,57.88
2022-10-19T04:22:02.196Z,57.88
2022-10-19T04:23:02.198Z,57.88
2022-10-19T04:24:02.220Z,57.88
2022-10-19T04:25:02.195Z,57.88
2022-10-19T04:26:02.191Z,57.88
2022-10-19T04:27:02.192Z,57.88
2022-10-19T04:28:02.203Z,57.88
2022-10-19T04:29:02.287Z,57.88
2022-10-19T04:30:02.206Z,57.88
2022-10-19T04:31:02.199Z,57.88
2022-10-19T04:32:02.204Z,57.88
2022-10-19T04:33:02.199Z,57.88
2022-10-19T04:34:02.217Z,57.88
2022-10-19T04:35:02.236Z,57.88
2022-10-19T04:36:02.204Z,57.88
2022-10-19T04:37:02.205Z,57.88
2022-10-19T04:38:02.208Z,57.88
2022-10-19T04:39:02.205Z,57.88
2022-10-19T04:40:02.212Z,57.88
2022-10-19T04:41:02.198Z,57.88
2022-10-19T04:42:02.204Z,57.88
2022-10-19T04:43:02.202Z,57.88
2022-10-19T04:44:02.217Z,57.88
2022-10-19T04:45:02.192Z,57.88
2022-10-19T04:46:02.202Z,57.88
2022-10-19T04:47:02.213Z,57.88
2022-10-19T04:48:02.207Z,57.88
2022-10-19T04:49:02.206Z,57.88
2022-10-19T04:50:02.197Z,57.88
2022-10-19T04:51:02.234Z,57.88
2022-10-19T04:52:02.201Z,57.88
2022-10-19T04:53:02.207Z,57.88
2022-10-19T04:54:02.208Z,57.88
2022-10-19T04:55:02.209Z,57.88
2022-10-19T04:56:02.204Z,57.88
2022-10-19T04:57:02.199Z,57.88
2022-10-19T04:58:02.197Z,57.88
2022-10-19T04:59:02.203Z,57.88
2022-10-19T05:00:02.202Z,57.88
2022-10-19T05:01:02.230Z,57.88
2022-10-19T05:02:02.211Z,57.88
2022-10-19T05:03:02.206Z,57.88
2022-10-19T05:04:02.215Z,57.88
2022-10-19T05:05:02.206Z,57.88
2022-10-19T05:06:02.195Z,57.88
2022-10-19T05:07:02.228Z,57.88
2022-10-19T05:08:02.205Z,57.88
2022-10-19T05:09:02.206Z,57.88
2022-10-19T05:10:02.208Z,57.88
2022-10-19T05:11:02.207Z,57.88
2022-10-19T05:12:02.211Z,57.88
2022-10-19T05:13:02.206Z,57.88
2022-10-19T05:14:02.207Z,57.88
2022-10-19T05:15:02.202Z,57.88
2022-10-19T05:16:02.204Z,57.88
2022-10-19T05:17:02.205Z,57.88
2022-10-19T05:18:02.210Z,57.88
2022-10-19T05:19:02.198Z,57.88
2022-10-19T05:20:02.211Z,57.88
2022-10-19T05:21:02.201Z,57.88
2022-10-19T05:22:02.207Z,57.88
2022-10-19T05:23:04.648Z,57.88
2022-10-19T05:24:02.216Z,57.88
2022-10-19T05:25:02.205Z,57.88
2022-10-19T05:26:02.206Z,57.88
2022-10-19T05:27:02.200Z,57.88
2022-10-19T05:28:02.206Z,57.88
2022-10-19T05:29:02.307Z,57.88
2022-10-19T05:30:02.212Z,57.88
2022-10-19T05:31:02.207Z,57.88
2022-10-19T05:32:02.215Z,57.88
2022-10-19T05:33:02.209Z,57.88
2022-10-19T05:34:02.246Z,57.88
2022-10-19T05:35:02.214Z,57.88
2022-10-19T05:36:02.200Z,57.88
2022-10-19T05:37:02.207Z,57.88
2022-10-19T05:38:02.201Z,57.88
2022-10-19T05:39:02.245Z,57.88
2022-10-19T05:40:02.211Z,57.88
2022-10-19T05:41:02.203Z,57.88
2022-10-19T05:42:02.208Z,57.88
2022-10-19T05:43:02.223Z,57.88
2022-10-19T05:44:02.210Z,57.88
2022-10-19T05:45:02.208Z,57.88
2022-10-19T05:46:02.205Z,57.88
2022-10-19T05:47:02.206Z,57.88
2022-10-19T05:48:02.205Z,57.88
2022-10-19T05:49:02.209Z,57.88
2022-10-19T05:50:02.201Z,57.88
2022-10-19T05:51:02.217Z,57.88
2022-10-19T05:52:02.196Z,57.88
2022-10-19T05:53:02.208Z,57.88
2022-10-19T05:54:02.208Z,57.88
2022-10-19T05:55:02.223Z,57.88
2022-10-19T05:56:02.214Z,57.88
2022-10-19T05:57:02.211Z,57.88
2022-10-19T05:58:02.206Z,57.88
2022-10-19T05:59:02.207Z,57.88
2022-10-19T06:00:02.202Z,57.88
2022-10-19T06:01:02.207Z,57.88
2022-10-19T06:02:02.278Z,57.88
2022-10-19T06:03:02.207Z,57.88
2022-10-19T06:04:02.203Z,57.88
2022-10-19T06:05:02.243Z,57.88
2022-10-19T06:06:02.205Z,57.88
2022-10-19T06:07:02.207Z,57.88
2022-10-19T06:08:02.198Z,57.88
2022-10-19T06:09:02.199Z,57.88
2022-10-19T06:10:02.211Z,57.88
2022-10-19T06:11:02.237Z,57.88
2022-10-19T06:12:02.210Z,57.88
2022-10-19T06:13:02.194Z,57.88
2022-10-19T06:14:02.212Z,57.88
2022-10-19T06:15:02.207Z,57.88
2022-10-19T06:16:02.198Z,57.88
2022-10-19T06:17:02.205Z,57.88
2022-10-19T06:18:02.208Z,57.88
2022-10-19T06:19:02.207Z,57.88
2022-10-19T06:20:02.216Z,57.88
2022-10-19T06:21:02.207Z,57.88
2022-10-19T06:22:02.215Z,57.88
2022-10-19T06:23:02.205Z,57.88
2022-10-19T06:24:02.208Z,57.88
2022-10-19T06:25:02.201Z,57.88
2022-10-19T06:26:02.195Z,57.88
2022-10-19T06:27:02.222Z,57.88
2022-10-19T06:28:02.207Z,57.88
2022-10-19T06:29:02.215Z,57.88
2022-10-19T06:30:02.211Z,57.88
2022-10-19T06:31:04.000Z,57.88
2022-10-19T06:32:02.203Z,57.88
2022-10-19T06:34:02.237Z,57.88
2022-10-19T06:35:02.209Z,57.88
2022-10-19T06:36:02.208Z,57.88
2022-10-19T06:37:02.211Z,57.88
2022-10-19T06:38:02.219Z,57.88
2022-10-19T06:39:02.252Z,57.88
2022-10-19T06:40:06.145Z,57.88
2022-10-19T06:41:02.211Z,57.88
2022-10-19T06:42:02.213Z,57.88
2022-10-19T06:43:02.247Z,57.88
2022-10-19T06:44:02.223Z,57.88
2022-10-19T06:45:02.254Z,57.88
2022-10-19T06:46:02.218Z,57.88
2022-10-19T06:47:02.213Z,57.88
2022-10-19T06:48:03.566Z,57.88
2022-10-19T06:49:02.221Z,57.88
2022-10-19T06:50:02.211Z,57.88
2022-10-19T06:51:02.223Z,57.88
2022-10-19T06:52:02.210Z,57.88
2022-10-19T06:53:02.218Z,57.88
2022-10-19T06:54:02.226Z,57.88
2022-10-19T06:55:02.224Z,57.88
2022-10-19T06:56:02.219Z,57.88
2022-10-19T06:57:02.227Z,57.88
2022-10-19T06:58:02.209Z,57.88
2022-10-19T06:59:02.237Z,57.88
2022-10-19T07:00:02.207Z,57.88
2022-10-19T07:01:02.339Z,57.88
2022-10-19T07:02:02.220Z,57.88
2022-10-19T07:03:02.224Z,57.88
2022-10-19T07:04:02.220Z,57.88
2022-10-19T07:05:04.524Z,57.88
2022-10-19T07:06:02.214Z,57.88
2022-10-19T07:07:02.212Z,57.88
2022-10-19T07:08:02.254Z,57.88
2022-10-19T07:09:02.223Z,57.88
2022-10-19T07:10:02.217Z,57.88
2022-10-19T07:11:02.212Z,57.88
2022-10-19T07:12:02.225Z,57.88
2022-10-19T07:13:02.261Z,57.88
2022-10-19T07:14:02.220Z,57.88
2022-10-19T07:15:02.262Z,57.88
2022-10-19T07:16:02.212Z,57.88
2022-10-19T07:17:02.224Z,57.88
2022-10-19T07:18:02.229Z,57.88
2022-10-19T07:19:02.230Z,57.88
2022-10-19T07:20:02.219Z,57.88
2022-10-19T07:21:02.221Z,57.88
2022-10-19T07:22:02.224Z,57.88
2022-10-19T07:23:02.225Z,57.88
2022-10-19T07:24:02.216Z,57.88
2022-10-19T07:25:02.225Z,57.88
2022-10-19T07:26:02.223Z,57.88
2022-10-19T07:27:02.227Z,57.88
2022-10-19T07:28:02.226Z,57.88
2022-10-19T07:29:02.231Z,57.88
2022-10-19T07:30:02.219Z,57.88
2022-10-19T07:31:02.248Z,57.88
2022-10-19T07:32:02.235Z,57.88
2022-10-19T07:33:02.220Z,57.88
2022-10-19T07:34:02.225Z,57.88
2022-10-19T07:35:02.215Z,57.88
2022-10-19T07:36:02.237Z,57.88
2022-10-19T07:37:02.211Z,57.88
2022-10-19T07:38:02.230Z,57.88
2022-10-19T07:39:02.215Z,57.88
2022-10-19T07:40:02.216Z,57.88
2022-10-19T07:41:02.220Z,57.88
2022-10-19T07:42:02.235Z,57.88
2022-10-19T07:43:02.223Z,57.88
2022-10-19T07:44:02.228Z,57.88
2022-10-19T07:45:02.222Z,57.88
2022-10-19T07:46:02.225Z,57.88
2022-10-19T07:47:02.248Z,57.88
2022-10-19T07:48:02.230Z,57.88
2022-10-19T07:49:02.221Z,57.88
2022-10-19T07:50:02.231Z,57.88
2022-10-19T07:51:02.228Z,57.88
2022-10-19T07:52:02.223Z,57.88
2022-10-19T07:53:02.231Z,57.88
2022-10-19T07:54:02.236Z,57.88
2022-10-19T07:55:02.233Z,57.88
2022-10-19T07:56:02.215Z,57.88
2022-10-19T07:57:02.235Z,57.88
2022-10-19T07:58:02.226Z,57.88
2022-10-19T07:59:02.227Z,57.88
2022-10-19T08:00:02.247Z,57.88
2022-10-19T08:01:02.244Z,57.88
2022-10-19T08:02:02.312Z,57.88
2022-10-19T08:03:31.464Z,57.88
2022-10-19T08:05:05.185Z,57.88
2022-10-19T08:06:02.235Z,57.88
2022-10-19T08:07:02.232Z,57.88
2022-10-19T08:08:02.226Z,57.88
2022-10-19T08:09:02.310Z,57.88
2022-10-19T08:10:02.226Z,57.88
2022-10-19T08:11:02.243Z,57.88
2022-10-19T08:12:02.228Z,57.88
2022-10-19T08:13:02.230Z,57.88
2022-10-19T08:14:02.227Z,57.88
2022-10-19T08:15:02.235Z,57.88
2022-10-19T08:16:02.235Z,57.88
2022-10-19T08:17:02.235Z,57.88
2022-10-19T08:18:02.228Z,57.88
2022-10-19T08:19:02.264Z,57.88
2022-10-19T08:20:02.233Z,57.88
2022-10-19T08:21:02.233Z,57.88
2022-10-19T08:22:02.270Z,57.88
2022-10-19T08:23:02.232Z,57.88
2022-10-19T08:24:02.237Z,57.88
2022-10-19T08:25:02.233Z,57.88
2022-10-19T08:26:02.234Z,57.88
2022-10-19T08:27:02.238Z,57.88
2022-10-19T08:28:02.235Z,57.88
2022-10-19T08:29:02.236Z,57.88
2022-10-19T08:30:02.248Z,57.88
2022-10-19T08:31:02.225Z,57.88
2022-10-19T08:32:02.229Z,57.88
2022-10-19T08:33:02.240Z,57.88
2022-10-19T08:34:02.232Z,57.88
2022-10-19T08:35:02.298Z,57.88
2022-10-19T08:36:02.225Z,57.88
2022-10-19T08:37:06.608Z,57.88
2022-10-19T08:38:02.935Z,57.88
2022-10-19T08:39:02.239Z,57.88
2022-10-19T08:40:02.232Z,57.88
2022-10-19T08:41:02.239Z,57.88
2022-10-19T08:42:02.243Z,57.88
2022-10-19T08:43:02.244Z,57.88
2022-10-19T08:44:03.959Z,57.88
2022-10-19T08:45:02.239Z,57.88
2022-10-19T08:46:02.242Z,57.88
2022-10-19T08:47:02.578Z,57.88
2022-10-19T08:48:02.237Z,57.88
2022-10-19T08:49:02.236Z,57.88
2022-10-19T08:50:02.241Z,57.88
2022-10-19T08:51:02.258Z,57.88
2022-10-19T08:52:02.239Z,57.88
2022-10-19T08:53:02.253Z,57.88
2022-10-19T08:54:02.243Z,312
2022-10-19T08:55:02.236Z,100.24
2022-10-19T08:56:04.411Z,48
2022-10-19T08:57:02.245Z,15.53
2022-10-19T08:58:02.236Z,348.71
2022-10-19T08:59:02.244Z,2.82
2022-10-19T09:00:02.248Z,15.53
2022-10-19T09:01:02.245Z,36.71
2022-10-19T09:02:02.248Z,35.29
2022-10-19T09:03:02.266Z,35.29
2022-10-19T09:04:02.241Z,35.29
2022-10-19T09:05:02.236Z,35.29
2022-10-19T09:06:02.256Z,35.29
2022-10-19T09:07:02.286Z,35.29
2022-10-19T09:08:02.240Z,35.29
2022-10-19T09:09:02.278Z,4.24
2022-10-19T09:10:02.245Z,4.24
2022-10-19T09:11:02.246Z,4.24
2022-10-19T09:12:02.244Z,4.24
2022-10-19T09:13:02.251Z,4.24
2022-10-19T09:14:05.788Z,4.24
2022-10-19T09:15:02.239Z,4.24
2022-10-19T09:16:02.244Z,4.24
2022-10-19T09:17:02.234Z,4.24
2022-10-19T09:18:02.248Z,4.24
2022-10-19T09:19:02.248Z,4.24
2022-10-19T09:20:02.244Z,4.24
2022-10-19T09:21:02.245Z,4.24
2022-10-19T09:22:02.242Z,4.24
2022-10-19T09:23:02.263Z,4.24
2022-10-19T09:24:02.241Z,4.24
2022-10-19T09:25:02.250Z,261.18
2022-10-19T09:26:02.245Z,245.65
2022-10-19T09:27:02.232Z,334.59
2022-10-19T09:29:02.247Z,280.94
2022-10-19T09:30:02.238Z,279.53
2022-10-19T09:31:02.242Z,358.59
2022-10-19T09:32:02.331Z,316.24
2022-10-19T09:33:02.243Z,313.41
2022-10-19T09:34:02.241Z,18.35
2022-10-19T09:35:02.252Z,4.24
2022-10-19T09:36:02.237Z,321.88
2022-10-19T09:37:02.310Z,338.82
2022-10-19T09:38:02.239Z,33.88
2022-10-19T09:39:02.278Z,327.53
2022-10-19T09:40:02.234Z,9.88
2022-10-19T09:41:02.239Z,46.59
2022-10-19T09:42:02.243Z,15.53
2022-10-19T09:43:02.248Z,19.76
2022-10-19T09:44:02.257Z,290.82
2022-10-19T09:45:02.244Z,360
2022-10-19T09:46:02.244Z,341.65
2022-10-19T09:47:02.247Z,18.35
2022-10-19T09:48:07.051Z,297.88
2022-10-19T09:49:02.248Z,293.65
2022-10-19T09:50:02.265Z,330.35
2022-10-19T09:51:02.247Z,312
2022-10-19T09:52:02.260Z,355.76
2022-10-19T09:53:02.246Z,4.24
2022-10-19T09:54:02.250Z,12.71
2022-10-19T09:55:02.278Z,16.94
2022-10-19T09:56:02.249Z,320.47
2022-10-19T09:57:02.248Z,32.47
2022-10-19T09:58:02.258Z,334.59
2022-10-19T09:59:02.248Z,7.06
2022-10-19T10:00:02.251Z,8.47
2022-10-19T10:01:02.249Z,1.41
2022-10-19T10:03:02.254Z,59.29
2022-10-19T10:04:02.238Z,1.41
2022-10-19T10:05:02.256Z,360
2022-10-19T10:06:02.260Z,22.59
2022-10-19T10:07:02.263Z,312
2022-10-19T10:08:02.252Z,12.71
2022-10-19T10:09:02.363Z,5.65
2022-10-19T10:10:02.248Z,295.06
2022-10-19T10:11:02.283Z,290.82
2022-10-19T10:12:02.237Z,336
2022-10-19T10:13:02.252Z,328.94
2022-10-19T10:14:03.037Z,360
2022-10-19T10:15:02.255Z,338.82
2022-10-19T10:16:02.250Z,319.06
2022-10-19T10:17:02.254Z,354.35
2022-10-19T10:18:02.254Z,347.29
2022-10-19T10:19:02.245Z,310.59
2022-10-19T10:20:02.263Z,320.47
2022-10-19T10:21:03.124Z,320.47
2022-10-19T10:22:02.253Z,285.18
2022-10-19T10:23:02.247Z,290.82
2022-10-19T10:24:02.256Z,288
2022-10-19T10:25:02.256Z,310.59
2022-10-19T10:26:02.258Z,321.88
2022-10-19T10:27:02.307Z,348.71
2022-10-19T10:28:02.252Z,285.18
2022-10-19T10:29:02.256Z,306.35
2022-10-19T10:30:02.265Z,278.12
2022-10-19T10:31:02.262Z,297.88
2022-10-19T10:32:02.262Z,297.88
2022-10-19T10:33:08.018Z,18.35
2022-10-19T10:34:07.437Z,343.06
2022-10-19T10:35:02.263Z,336
2022-10-19T10:36:02.254Z,338.82
2022-10-19T10:37:02.265Z,309.18
2022-10-19T10:38:02.260Z,290.82
2022-10-19T10:40:03.794Z,28.24
2022-10-19T10:41:02.266Z,295.06
2022-10-19T10:42:02.259Z,283.76
2022-10-19T10:43:02.280Z,15.53
2022-10-19T10:44:03.798Z,14.12
2022-10-19T10:45:02.253Z,340.24
2022-10-19T10:46:02.264Z,326.12
2022-10-19T10:47:02.273Z,309.18
2022-10-19T10:48:02.324Z,297.88
2022-10-19T10:49:02.262Z,336
2022-10-19T10:50:02.255Z,357.18
2022-10-19T10:51:02.248Z,330.35
2022-10-19T10:52:02.256Z,295.06
2022-10-19T10:53:02.258Z,360
2022-10-19T10:54:02.258Z,323.29
2022-10-19T10:55:02.267Z,333.18
2022-10-19T10:56:02.260Z,328.94
2022-10-19T10:57:04.334Z,304.94
2022-10-19T10:58:02.266Z,276.71
2022-10-19T10:59:02.294Z,1.41
2022-10-19T11:00:02.257Z,285.18
2022-10-19T11:01:05.305Z,313.41
2022-10-19T11:02:02.336Z,299.29
2022-10-19T11:03:02.261Z,307.76
2022-10-19T11:04:02.269Z,303.53
2022-10-19T11:05:02.270Z,309.18
2022-10-19T11:06:02.254Z,314.82
2022-10-19T11:07:02.340Z,296.47
2022-10-19T11:08:02.260Z,312
2022-10-19T11:09:02.320Z,8.47
2022-10-19T11:10:02.269Z,297.88
2022-10-19T11:11:02.261Z,312
2022-10-19T11:12:02.264Z,285.18
2022-10-19T11:13:02.270Z,289.41
2022-10-19T11:14:02.263Z,316.24
2022-10-19T11:15:02.294Z,316.24
2022-10-19T11:16:02.265Z,330.35
2022-10-19T11:17:02.320Z,351.53
2022-10-19T11:18:02.273Z,347.29
2022-10-19T11:19:02.293Z,317.65
2022-10-19T11:20:02.267Z,293.65
2022-10-19T11:21:02.271Z,307.76
2022-10-19T11:22:02.264Z,288
2022-10-19T11:23:02.267Z,292.24
2022-10-19T11:24:02.268Z,299.29
2022-10-19T11:25:02.258Z,275.29
2022-10-19T11:26:02.262Z,12.71
2022-10-19T11:27:02.293Z,312
2022-10-19T11:28:02.279Z,15.53
2022-10-19T11:29:02.280Z,306.35
2022-10-19T11:30:02.266Z,336
2022-10-19T11:31:02.304Z,299.29
2022-10-19T11:32:02.277Z,328.94
2022-10-19T11:33:02.271Z,326.12
2022-10-19T11:34:02.651Z,343.06
2022-10-19T11:35:02.275Z,314.82
2022-10-19T11:36:02.267Z,320.47
2022-10-19T11:37:02.322Z,288
2022-10-19T11:38:18.655Z,279.53
2022-10-19T11:39:02.275Z,302.12
2022-10-19T11:40:02.279Z,327.53
2022-10-19T11:41:18.753Z,2.82
2022-10-19T11:42:02.287Z,314.82
2022-10-19T11:43:02.280Z,317.65
2022-10-19T11:44:02.269Z,343.06
2022-10-19T11:45:02.276Z,306.35
2022-10-19T11:46:02.269Z,297.88
2022-10-19T11:47:02.386Z,286.59
2022-10-19T11:48:02.276Z,285.18
2022-10-19T11:49:02.280Z,299.29
2022-10-19T11:50:02.342Z,338.82
2022-10-19T11:51:16.736Z,320.47
2022-10-19T11:52:02.265Z,307.76
2022-10-19T11:53:02.300Z,340.24
2022-10-19T11:54:02.272Z,12.71
2022-10-19T11:55:02.279Z,0
2022-10-19T11:56:02.275Z,14.12
2022-10-19T11:57:04.925Z,321.88
2022-10-19T11:58:02.283Z,307.76
2022-10-19T11:59:02.327Z,323.29
2022-10-19T12:00:08.097Z,360
2022-10-19T12:01:02.283Z,328.94
2022-10-19T12:02:02.309Z,1.41
2022-10-19T12:03:03.790Z,16.94
2022-10-19T12:04:02.275Z,320.47
2022-10-19T12:05:02.288Z,299.29
2022-10-19T12:06:02.288Z,360
2022-10-19T12:07:02.283Z,279.53
2022-10-19T12:08:02.282Z,279.53
2022-10-19T12:09:02.364Z,316.24
2022-10-19T12:10:02.296Z,289.41
2022-10-19T12:11:02.289Z,293.65
2022-10-19T12:12:02.286Z,297.88
2022-10-19T12:13:02.281Z,4.24
2022-10-19T12:14:02.277Z,343.06
2022-10-19T12:15:02.274Z,312
2022-10-19T12:16:02.278Z,336
2022-10-19T12:17:02.404Z,360
2022-10-19T12:18:02.279Z,49.41
2022-10-19T12:19:02.311Z,309.18
2022-10-19T12:20:02.284Z,302.12
2022-10-19T12:21:02.289Z,324.71
2022-10-19T12:22:02.293Z,313.41
2022-10-19T12:23:02.287Z,264
2022-10-19T12:24:02.303Z,304.94
2022-10-19T12:25:02.280Z,320.47
2022-10-19T12:26:02.281Z,324.71
2022-10-19T12:27:02.298Z,360
2022-10-19T12:28:02.286Z,334.59
2022-10-19T12:29:02.289Z,316.24
2022-10-19T12:30:02.321Z,337.41
2022-10-19T12:31:02.304Z,303.53
2022-10-19T12:32:02.288Z,306.35
2022-10-19T12:33:02.284Z,11.29
2022-10-19T12:34:02.296Z,28.24
2022-10-19T12:35:02.315Z,328.94
2022-10-19T12:36:02.302Z,292.24
2022-10-19T12:37:02.287Z,292.24
2022-10-19T12:38:02.289Z,306.35
2022-10-19T12:39:02.310Z,295.06
2022-10-19T12:40:02.285Z,310.59
2022-10-19T12:41:02.313Z,326.12
2022-10-19T12:42:02.297Z,306.35
2022-10-19T12:43:02.294Z,19.76
2022-10-19T12:44:02.285Z,282.35
2022-10-19T12:45:02.312Z,316.24
2022-10-19T12:46:02.297Z,26.82
2022-10-19T12:47:02.326Z,345.88
2022-10-19T12:48:02.287Z,295.06
2022-10-19T12:49:02.298Z,350.12
2022-10-19T12:50:02.314Z,345.88
2022-10-19T12:51:02.327Z,336
2022-10-19T12:52:02.285Z,272.47
2022-10-19T12:53:02.292Z,352.94
2022-10-19T12:54:02.292Z,314.82
2022-10-19T12:55:02.299Z,16.94
2022-10-19T12:56:02.287Z,300.71